Flight Track Log - Related Links

Times and Time Zones

All times are in EDT time to prevent confusion due to time zone crossing. See the N9669C flight status page for this flight to view local times or setup timezone preferences in your user account.

Time Position Orientation Groundspeed Altitude Reporting Facility
EDT Latitude Longitude Course Direction KTS MPH feet Rate Location/Type
Sun 10:39:07 AM 40.8800 -80.1022 28° Northeast 100 115 3,600  Level Cleveland Center
Sun 10:40:09 AM 40.9036 -80.0842 30° Northeast 99 114 4,100 532 Climbing Cleveland Center
Sun 10:41:11 AM 40.9267 -80.0672 29° Northeast 96 110 4,700 532 Climbing Cleveland Center
Sun 10:42:13 AM 40.9503 -80.0511 27° Northeast 94 108 5,200 435 Climbing Cleveland Center
Sun 10:43:00 AM 41.0089 -80.0147 28° Northeast  Level Estimated
Sun 10:43:15 AM 40.9733 -80.0336 30° Northeast 95 109 5,600  Level Cleveland Center
Sun 10:44:00 AM 41.0434 -79.9903 28° Northeast  Level Estimated
Sun 10:44:17 AM 41.0067 -80.0097 28° Northeast 113 130 5,600  Level Cleveland Center
Sun 10:45:19 AM 41.0381 -79.9897 26° Northeast 123 142 5,600 -48 Level Cleveland Center
Sun 10:46:21 AM 41.0664 -79.9694 28° Northeast 117 135 5,500 -48 Descending Cleveland Center
Sun 10:47:23 AM 41.0950 -79.9483 29° Northeast 118 136 5,500  Level Cleveland Center
Sun 10:48:25 AM 41.1239 -79.9308 25° Northeast 115 132 5,500  Level Cleveland Center
Sun 10:49:28 AM 41.1553 -79.9039 33° Northeast 119 137 5,500 48 Level Cleveland Center
Sun 10:50:30 AM 41.1858 -79.8836 27° Northeast 122 140 5,600 48 Climbing Cleveland Center
Sun 10:51:32 AM 41.2169 -79.8625 27° Northeast 124 143 5,600 -48 Level Cleveland Center
Sun 10:52:34 AM 41.2533 -79.8369 28° Northeast 125 144 5,500  Descending Cleveland Center
Sun 10:53:36 AM 41.2831 -79.8139 30° Northeast 125 144 5,600 48 Climbing Cleveland Center
Sun 10:54:38 AM 41.3133 -79.7925 28° Northeast 125 144 5,600  Level Cleveland Center
Sun 10:55:40 AM 41.3442 -79.7703 28° Northeast 125 144 5,600 -48 Level Cleveland Center
Sun 10:56:42 AM 41.3736 -79.7500 27° Northeast 121 139 5,500 -48 Descending Cleveland Center
Sun 10:57:44 AM 41.4033 -79.7292 28° Northeast 122 140 5,500  Level Cleveland Center
Sun 10:58:46 AM 41.4383 -79.7019 30° Northeast 121 139 5,500  Level Cleveland Center
Sun 10:59:48 AM 41.4669 -79.6808 29° Northeast 119 137 5,500 48 Level Cleveland Center
Sun 11:00:50 AM 41.4961 -79.6583 30° Northeast 120 138 5,600 48 Climbing Cleveland Center
Sun 11:01:52 AM 41.5269 -79.6369 27° Northeast 123 142 5,600 -48 Level Cleveland Center
Sun 11:02:54 AM 41.5572 -79.6136 30° Northeast 126 145 5,500  Descending Cleveland Center
Sun 11:03:56 AM 41.5942 -79.5917 24° Northeast 123 142 5,600 48 Climbing Cleveland Center
Sun 11:04:58 AM 41.6250 -79.5706 27° Northeast 124 143 5,600  Level Cleveland Center
Sun 11:06:00 AM 41.6550 -79.5478 30° Northeast 125 144 5,600  Level Cleveland Center
Sun 11:07:02 AM 41.6847 -79.5247 30° Northeast 124 143 5,600 -48 Level Cleveland Center
Sun 11:08:04 AM 41.7164 -79.5017 29° Northeast 128 147 5,500  Descending Cleveland Center
Sun 11:09:06 AM 41.7531 -79.4756 28° Northeast 127 146 5,600  Climbing Cleveland Center
Sun 11:10:08 AM 41.7831 -79.4508 32° Northeast 127 146 5,500  Descending Cleveland Center
Sun 11:11:10 AM 41.8142 -79.4311 25° Northeast 126 145 5,600 48 Climbing Cleveland Center
Sun 11:12:12 AM 41.8447 -79.4106 27° Northeast 124 143 5,600  Level Cleveland Center
Sun 11:13:14 AM 41.8756 -79.3900 26° Northeast 125 144 5,600  Level Cleveland Center
Sun 11:14:16 AM 41.9125 -79.3628 29° Northeast 126 145 5,600  Level Cleveland Center
Sun 11:15:18 AM 41.9436 -79.3414 27° Northeast 126 145 5,600  Level Cleveland Center
Sun 11:16:20 AM 41.9769 -79.3183 27° Northeast 128 147 5,600  Level Cleveland Center
Sun 11:17:22 AM 42.0064 -79.2894 36° Northeast 125 144 5,600  Level Cleveland Center
Sun 11:18:24 AM 42.0383 -79.2672 27° Northeast 125 144 5,600  Level Cleveland Center
Sun 11:19:25 AM 42.0686 -79.2411 33° Northeast 130 150 5,600  Level Cleveland Center
Sun 11:20:27 AM 42.1011 -79.2164 29° Northeast 130 150 5,600  Level Cleveland Center
Sun 11:21:29 AM 42.1336 -79.1933 28° Northeast 129 148 5,600  Level Cleveland Center
Sun 11:22:31 AM 42.1669 -79.1667 31° Northeast 133 153 5,600  Level Cleveland Center
Sun 11:23:33 AM 42.1981 -79.1419 30° Northeast 127 146 5,600  Level Cleveland Center
Sun 11:24:35 AM 42.2289 -79.1192 29° Northeast 131 151 5,600  Level Cleveland Center
Sun 11:25:36 AM 42.2631 -79.0942 28° Northeast 128 147 5,600  Level Cleveland Center
Sun 11:26:38 AM 42.2967 -79.0808 16° North 125 144 5,600  Level Cleveland Center
Sun 11:27:40 AM 42.3289 -79.0614 24° Northeast 124 143 5,600  Level Cleveland Center
Sun 11:28:42 AM 42.3608 -79.0342 32° Northeast 130 150 5,600  Level Cleveland Center
Sun 11:29:44 AM 42.3933 -79.0078 31° Northeast 131 151 5,600  Level Cleveland Center
Sun 11:30:46 AM 42.4242 -78.9856 28° Northeast 131 151 5,600  Level Cleveland Center
Sun 11:31:48 AM 42.4572 -78.9592 30° Northeast 131 151 5,600  Level Cleveland Center
Sun 11:32:50 AM 42.4903 -78.9350 28° Northeast 130 150 5,600 -49 Level Cleveland Center
Sun 11:33:51 AM 42.5222 -78.9108 29° Northeast 128 147 5,500  Descending Cleveland Center
Sun 11:34:53 AM 42.5544 -78.8928 22° Northeast 131 151 5,600  Climbing Cleveland Center
Sun 11:35:55 AM 42.5881 -78.8644 32° Northeast 126 145 5,500 -48 Descending Cleveland Center
Sun 11:36:57 AM 42.6175 -78.8414 30° Northeast 127 146 5,500  Level Cleveland Center
Sun 11:37:59 AM 42.6511 -78.8211 24° Northeast 127 146 5,500 -387 Level Cleveland Center
Sun 11:39:01 AM 42.6881 -78.8108 12° North 129 148 4,700 -726 Descending Cleveland Center
Sun 11:40:03 AM 42.7264 -78.7869 25° Northeast 144 166 4,000 -585 Descending Cleveland Center
Sun 11:41:04 AM 42.7581 -78.7572 35° Northeast 134 154 3,500 -537 Descending Cleveland Center
Sun 11:42:06 AM 42.7906 -78.7294 32° Northeast 131 151 2,900 -435 Descending Cleveland Center
Sun 11:43:08 AM 42.8203 -78.7014 35° Northeast 134 154 2,600 -242 Descending Cleveland Center
Sun 11:44:10 AM 42.8528 -78.6781 28° Northeast 129 148 2,400 -194 Descending Cleveland Center
Sun 11:45:12 AM 42.8806 -78.6567 29° Northeast 128 147 2,200 -387 Descending Cleveland Center
Sun 11:45:43 AM 42.9000 -78.6333 41° Northeast 128 147 1,800 -330 Descending Buffalo TRACON
Sun 11:47:01 AM 42.9167 -78.5833 66° East 107 123 1,600 -304 Descending Buffalo TRACON
Sun 11:48:01 AM 42.9333 -78.6000 324° Northwest 72 83 1,100 -500 Descending Buffalo TRACON
Sun 11:50:00 AM 42.9167 -78.6000 180° South  Level FlightAware Approximate

Login

Don't have an account? Register now (free) for customized features, flight alerts, and more!